Latest Weather Observations for Esperance Airport

IDW60801

Issued at 7:13 am WST Wednesday 16 January 2019 (issued every 10 minutes, with the page automatically refreshed every 10 minutes)

About weather observations | Map of weather stations | Latest weather observations for WA | Other Formats
Station Details ID: 009542 Name: ESPERANCE AERO Lat: -33.68 Lon: 121.83 Height: 142.0 m
Data from the previous 72 hours. | See also: Recent months at Esperance Airport
Date/Time
WST
Temp
°C
App
Temp
°C
Dew
Point
°C
Rel
Hum
%
Delta-T
°C
Wind Press
QNH
hPa
Press
MSL
hPa
Rain since
9am
mm
Dir  Spd
km/h
Gust
km/h
Spd
kts
Gust
kts
16/07:00am 17.8 15.7 12.3 70 3.1 E 15 22 8 12 1013.0 1012.5 0.0
16/06:30am 17.6 15.9 12.3 71 2.9 E 13 17 7 9 1012.9 1012.4 0.0
16/06:00am 17.1 14.9 12.0 72 2.8 ESE 15 19 8 10 1012.9 1012.4 0.0
16/05:30am 16.9 14.7 12.0 73 2.7 ESE 15 19 8 10 1012.5 1012.0 0.0
16/05:00am 16.8 14.9 11.9 73 2.7 SE 13 20 7 11 1012.1 1011.6 0.0
16/04:30am 16.7 14.1 12.0 74 2.6 SE 17 22 9 12 1011.6 1011.0 0.0
16/04:00am 16.5 14.2 11.9 74 2.5 SSE 15 20 8 11 1011.6 1011.0 0.0
16/03:30am 16.5 14.2 11.9 74 2.5 SE 15 19 8 10 1011.8 1011.2 0.0
16/03:00am 16.2 14.7 12.0 76 2.3 SE 11 15 6 8 1012.2 1011.7 0.0
16/02:30am 15.6 14.5 11.8 78 2.1 ESE 9 11 5 6 1012.6 1012.1 0.0
16/02:00am 15.2 13.2 11.4 78 2.1 ESE 13 15 7 8 1012.3 1011.8 0.0
16/01:30am 15.0 13.8 11.6 80 1.8 ESE 9 11 5 6 1012.7 1012.2 0.0
16/01:00am 15.3 14.1 11.5 78 2.1 ESE 9 11 5 6 1013.2 1012.7 0.0
16/12:30am 15.1 14.2 11.5 79 1.9 E 7 9 4 5 1013.4 1012.9 0.0
16/12:00am 15.1 13.8 11.3 78 2.0 E 9 11 5 6 1013.2 1012.7 0.0
 
Date/Time
WST
Temp
°C
App
Temp
°C
Dew
Point
°C
Rel
Hum
%
Delta-T
°C
Wind Press
QNH
hPa
Press
MSL
hPa
Rain since
9am
mm
Dir  Spd
km/h
Gust
km/h
Spd
kts
Gust
kts
15/11:30pm 15.6 14.4 11.6 77 2.2 E 9 13 5 7 1013.5 1013.0 0.0
15/11:00pm 15.5 13.5 11.5 77 2.2 ESE 13 17 7 9 1013.5 1013.0 0.0
15/10:30pm 15.3 13.2 11.1 76 2.3 ESE 13 19 7 10 1013.8 1013.3 0.0
15/10:00pm 15.6 12.3 11.0 74 2.5 SE 19 24 10 13 1013.6 1013.1 0.0
15/09:30pm 15.6 12.3 11.0 74 2.5 SE 19 24 10 13 1013.8 1013.3 0.0
15/09:00pm 15.6 12.3 10.8 73 2.6 SE 19 24 10 13 1014.0 1013.5 0.0
15/08:30pm 16.0 12.5 11.0 72 2.7 SE 20 28 11 15 1013.9 1013.4 0.0
15/08:00pm 16.2 11.9 10.9 71 2.8 SE 24 33 13 18 1013.6 1013.1 0.0
15/07:30pm 16.4 11.8 10.9 70 3.0 SE 26 35 14 19 1013.4 1012.9 0.0
15/07:00pm 16.8 11.4 10.9 68 3.2 SE 30 39 16 21 1013.2 1012.7 0.0
15/06:30pm 17.8 12.8 11.1 65 3.6 SE 28 41 15 22 1013.0 1012.5 0.0
15/06:00pm 19.2 14.2 11.0 59 4.5 SE 28 39 15 21 1012.6 1012.1 0.0
15/05:30pm 19.6 13.9 11.1 58 4.7 SE 32 41 17 22 1012.3 1011.8 0.0
15/05:00pm 20.2 14.4 10.9 55 5.1 SE 32 43 17 23 1012.4 1011.9 0.0
15/04:30pm 20.4 14.3 11.6 57 4.9 SSE 35 44 19 24 1012.5 1012.0 0.0
15/04:00pm 21.1 15.0 11.7 55 5.3 SSE 35 48 19 26 1012.4 1011.9 0.0
15/03:30pm 21.6 15.7 11.3 52 5.7 SSE 33 46 18 25 1012.4 1011.9 0.0
15/03:00pm 21.1 14.5 11.4 54 5.4 SSE 37 46 20 25 1012.4 1011.9 0.0
15/02:30pm 22.1 16.4 11.8 52 5.8 SSE 33 48 18 26 1012.6 1012.1 0.0
15/02:00pm 23.0 17.5 12.0 50 6.3 SSE 32 43 17 23 1012.9 1012.4 0.0
15/01:30pm 23.0 17.4 11.4 48 6.5 SE 32 43 17 23 1012.8 1012.3 0.0
15/01:00pm 22.2 16.6 11.6 51 6.0 SSE 32 46 17 25 1013.4 1012.9 0.0
15/12:30pm 22.4 16.8 11.5 50 6.1 SSE 32 43 17 23 1013.4 1012.9 0.0
15/12:00pm 21.8 16.2 11.5 52 5.8 SSE 32 43 17 23 1013.7 1013.2 0.0
15/11:44am 22.3 17.4 11.4 50 6.1 SSE 28 46 15 25 1013.8 1013.3 0.0
15/11:30am 22.3 17.8 11.4 50 6.1 SE 26 35 14 19 1014.3 1013.8 0.0
15/11:00am 22.6 17.9 12.0 51 6.0 SSE 28 41 15 22 1014.6 1014.1 0.0
15/10:30am 21.5 16.9 11.2 52 5.7 SE 26 33 14 18 1014.9 1014.4 0.0
15/10:00am 21.3 17.5 11.1 52 5.7 SE 22 32 12 17 1015.1 1014.6 0.0
15/09:30am 21.4 18.5 11.1 52 5.7 SE 17 32 9 17 1015.8 1015.3 0.0
15/09:00am 19.4 16.6 11.2 59 4.5 ESE 17 24 9 13 1016.0 1015.5 0.0
15/08:30am 19.2 16.5 10.5 57 4.7 E 15 22 8 12 1016.7 1016.1 0.0
15/08:00am 18.5 15.9 10.8 61 4.2 E 15 19 8 10 1016.9 1016.3 0.0
15/07:30am 17.5 14.8 10.4 63 3.8 ENE 15 20 8 11 1016.7 1016.1 0.0
15/07:00am 17.0 13.7 9.7 62 3.8 ENE 17 22 9 12 1016.9 1016.3 0.0
15/06:30am 16.8 13.3 10.2 65 3.5 ENE 19 24 10 13 1016.7 1016.1 0.0
15/06:00am 16.3 13.9 10.2 67 3.2 ENE 13 17 7 9 1016.5 1015.9 0.0
15/05:30am 16.1 13.7 10.2 68 3.1 ENE 13 17 7 9 1016.1 1015.6 0.0
15/05:00am 16.1 13.4 10.2 68 3.1 E 15 19 8 10 1015.6 1015.1 0.0
15/04:30am 16.0 12.8 10.1 68 3.1 ESE 17 20 9 11 1015.1 1014.6 0.0
15/04:00am 16.1 12.7 10.4 69 3.0 ESE 19 24 10 13 1014.6 1014.1 0.0
15/03:30am 16.2 13.2 10.5 69 3.0 ESE 17 22 9 12 1014.6 1014.1 0.0
15/03:00am 16.3 13.3 10.6 69 3.0 ESE 17 22 9 12 1014.5 1014.0 0.0
15/02:30am 16.2 13.6 10.7 70 2.9 SE 15 20 8 11 1014.4 1013.9 0.0
15/02:00am 15.9 13.0 10.9 72 2.7 ESE 17 28 9 15 1014.1 1013.6 0.0
15/01:30am 16.5 13.1 11.2 71 2.9 SE 20 30 11 16 1014.3 1013.8 0.0
15/01:00am 16.8 14.4 11.3 70 3.0 SE 15 22 8 12 1015.0 1014.5 0.0
15/12:30am 16.9 14.1 11.2 69 3.1 SE 17 22 9 12 1015.1 1014.6 0.0
15/12:00am 16.9 14.3 12.0 73 2.7 SSE 17 24 9 13 1015.4 1014.9 0.0
 
Date/Time
WST
Temp
°C
App
Temp
°C
Dew
Point
°C
Rel
Hum
%
Delta-T
°C
Wind Press
QNH
hPa
Press
MSL
hPa
Rain since
9am
mm
Dir  Spd
km/h
Gust
km/h
Spd
kts
Gust
kts
14/11:30pm 16.9 14.7 12.0 73 2.7 SSE 15 19 8 10 1015.7 1015.2 0.0
14/11:00pm 16.9 15.2 12.4 75 2.5 SE 13 20 7 11 1015.7 1015.2 0.0
14/10:30pm 16.9 14.8 12.4 75 2.5 SE 15 17 8 9 1016.1 1015.6 0.0
14/10:00pm 17.0 15.3 12.5 75 2.5 SE 13 19 7 10 1016.0 1015.5 0.0
14/09:30pm 17.1 15.1 12.8 76 2.4 SE 15 20 8 11 1015.8 1015.3 0.0
14/09:00pm 17.1 14.2 12.8 76 2.4 SE 20 26 11 14 1015.7 1015.2 0.0
14/08:30pm 17.2 14.3 12.9 76 2.4 SSE 20 28 11 15 1015.4 1014.9 0.0
14/08:00pm 17.3 14.6 13.0 76 2.4 SSE 19 24 10 13 1015.2 1014.7 0.0
14/07:30pm 17.3 14.4 13.0 76 2.4 SE 20 24 11 13 1014.9 1014.4 0.0
14/07:00pm 17.4 14.5 12.9 75 2.5 SE 20 24 11 13 1014.7 1014.2 0.0
14/06:30pm 17.5 14.6 13.0 75 2.5 SSE 20 26 11 14 1014.4 1013.9 0.0
14/06:00pm 17.9 14.3 13.0 73 2.8 SSE 24 32 13 17 1014.2 1013.7 0.0
14/05:30pm 18.0 15.1 12.9 72 2.9 SE 20 28 11 15 1014.2 1013.7 0.0
14/05:00pm 18.3 15.4 13.0 71 3.0 SE 20 26 11 14 1014.2 1013.7 0.0
14/04:30pm 18.5 15.6 12.9 70 3.2 SE 20 28 11 15 1014.3 1013.8 0.0
14/04:00pm 18.6 15.0 13.0 70 3.2 SE 24 30 13 16 1014.1 1013.6 0.0
14/03:30pm 19.0 15.8 13.2 69 3.3 SE 22 30 12 16 1014.2 1013.7 0.0
14/03:00pm 19.2 15.6 12.9 67 3.6 SE 24 32 13 17 1014.4 1013.9 0.0
14/02:30pm 19.7 16.4 12.9 65 3.9 SE 22 30 12 16 1014.5 1014.0 0.0
14/02:00pm 20.0 16.7 12.7 63 4.1 SE 22 30 12 16 1014.9 1014.4 0.0
14/01:30pm 20.6 17.8 13.1 62 4.3 SSE 20 28 11 15 1015.0 1014.5 0.0
14/01:00pm 20.2 16.6 13.2 64 4.0 S 24 33 13 18 1014.7 1014.2 0.0
14/12:30pm 19.3 15.9 13.7 70 3.2 S 24 32 13 17 1015.1 1014.6 0.0
14/12:28pm 19.3 15.9 13.7 70 3.2 S 24 32 13 17 1015.1 1014.6 0.0
14/12:00pm 19.0 15.9 14.5 75 2.6 S 24 33 13 18 1015.3 1014.8 0.0
14/11:54am 19.0 16.0 14.7 76 2.5 S 24 30 13 16 1015.3 1014.8 0.0
14/11:30am 19.7 16.8 15.1 75 2.7 SSW 24 30 13 16 1015.4 1014.9 0.0
14/11:00am 19.5 17.0 14.1 71 3.1 S 20 28 11 15 1015.6 1015.1 0.0
14/10:30am 19.5 16.3 13.2 67 3.6 S 22 32 12 17 1015.6 1015.1 0.0
14/10:00am 19.2 16.5 13.6 70 3.2 S 20 28 11 15 1016.0 1015.5 0.0
14/09:47am 19.1 16.7 14.4 74 2.7 S 20 28 11 15 1016.1 1015.6 0.0
14/09:30am 18.8 16.2 14.9 78 2.3 SSW 22 32 12 17 1016.1 1015.6 0.0
14/09:00am 17.3 14.3 14.8 85 1.5 SSW 24 32 13 17 1016.1 1015.6 0.6
14/08:48am 17.9 14.7 15.3 85 1.5 SSW 26 32 14 17 1016.0 1015.5 0.6
14/08:30am 18.2 15.6 14.9 81 1.9 SSW 22 32 12 17 1016.1 1015.6 0.6
14/08:23am 18.1 16.1 15.0 82 1.8 SSW 19 24 10 13 1016.2 1015.7 0.6
14/08:00am 17.4 15.1 15.6 89 1.1 SSW 22 32 12 17 1016.5 1015.9 0.6
14/07:30am 16.9 15.1 15.4 91 0.9 SSW 19 26 10 14 1016.6 1016.0 0.6
14/07:00am 16.5 14.6 15.2 92 0.8 SSW 19 26 10 14 1016.1 1015.6 0.6
14/06:59am 16.5 14.6 15.2 92 0.8 SSW 19 26 10 14 1016.1 1015.6 0.6
14/06:30am 16.6 15.0 15.1 91 0.9 SSW 17 20 9 11 1016.1 1015.6 0.6
14/06:06am 16.4 15.3 15.3 93 0.6 SSW 15 22 8 12 1016.0 1015.5 0.6
14/06:00am 16.4 15.7 15.3 93 0.6 S 13 19 7 10 1016.0 1015.5 0.6
14/05:47am 16.2 14.6 14.9 92 0.8 S 17 22 9 12 1016.2 1015.7 0.6
14/05:42am 16.3 14.8 15.2 93 0.6 S 17 20 9 11 1016.2 1015.7 0.6
14/05:30am 16.4 15.3 15.4 94 0.6 S 15 19 8 10 1016.1 1015.6 0.6
14/05:25am 16.5 15.9 15.7 95 0.5 S 13 19 7 10 1016.1 1015.6 0.6
14/05:00am 16.6 16.0 15.6 94 0.6 SSW 13 15 7 8 1016.0 1015.5 0.4
14/04:30am 16.7 14.7 15.4 92 0.8 SSW 20 28 11 15 1015.6 1015.1 0.0
14/04:26am 16.8 14.7 15.2 90 0.9 SSW 20 28 11 15 1015.5 1015.0 0.0
14/04:00am 17.5 15.0 14.2 81 1.9 SSW 20 28 11 15 1015.3 1014.8 0.0
14/03:30am 17.3 14.7 14.9 86 1.4 SSW 22 28 12 15 1015.1 1014.6 0.0
14/03:29am 17.3 14.7 14.9 86 1.4 SSW 22 28 12 15 1015.1 1014.6 0.0
14/03:00am 17.9 15.6 14.0 78 2.2 SSW 19 24 10 13 1015.0 1014.5 0.0
14/02:30am 17.7 14.3 13.6 77 2.3 SSW 24 37 13 20 1014.6 1014.1 0.0
14/02:00am 17.8 13.5 13.3 75 2.6 SSW 28 35 15 19 1014.2 1013.7 0.0
14/01:30am 18.1 14.6 13.4 74 2.7 SW 24 32 13 17 1014.7 1014.2 0.0
14/01:00am 18.0 14.9 13.3 74 2.7 SW 22 30 12 16 1015.4 1014.9 0.0
14/12:30am 18.1 14.6 13.4 74 2.7 SSW 24 30 13 16 1015.6 1015.1 0.0
14/12:00am 18.5 16.2 14.2 76 2.5 SSW 19 28 10 15 1016.3 1015.8 0.0
 
Date/Time
WST
Temp
°C
App
Temp
°C
Dew
Point
°C
Rel
Hum
%
Delta-T
°C
Wind Press
QNH
hPa
Press
MSL
hPa
Rain since
9am
mm
Dir  Spd
km/h
Gust
km/h
Spd
kts
Gust
kts
13/11:30pm 18.7 15.6 14.4 76 2.5 SSW 24 33 13 18 1015.5 1015.0 0.0
13/11:00pm 18.9 15.8 14.6 76 2.5 SSW 24 32 13 17 1015.4 1014.9 0.0
13/10:30pm 19.0 15.4 14.1 73 2.8 SSW 26 35 14 19 1015.7 1015.2 0.0
13/10:00pm 19.1 15.3 14.8 76 2.5 SSW 28 35 15 19 1015.5 1015.0 0.0
13/09:30pm 19.3 16.0 15.0 76 2.5 SSW 26 32 14 17 1015.6 1015.1 0.0
13/09:00pm 19.3 16.7 15.8 80 2.1 SSW 24 30 13 16 1015.7 1015.2 0.0
13/08:53pm 19.3 17.1 16.0 81 2.0 SSW 22 30 12 16 1015.8 1015.3 0.0
13/08:30pm 19.4 17.3 16.1 81 2.0 SSW 22 32 12 17 1015.9 1015.4 0.0
13/08:25pm 19.3 16.7 16.0 81 2.0 SSW 24 32 13 17 1015.6 1015.1 0.0
13/08:05pm 19.5 16.9 15.8 79 2.2 SSW 24 33 13 18 1015.5 1015.0 0.0
13/08:00pm 19.5 16.9 15.8 79 2.2 SSW 24 33 13 18 1015.8 1015.3 0.0
13/07:30pm 19.7 17.2 16.2 80 2.1 SSW 24 35 13 19 1015.0 1014.5 0.0
13/07:00pm 19.9 17.1 16.3 80 2.2 SSW 26 39 14 21 1015.4 1014.9 0.0
13/06:30pm 20.0 15.4 16.2 79 2.3 SSW 35 44 19 24 1013.5 1013.0 0.0
13/06:00pm 20.4 15.5 16.4 78 2.4 SSW 37 48 20 26 1012.9 1012.4 0.0
13/05:33pm 20.5 16.0 16.5 78 2.4 SSW 35 54 19 29 1012.2 1011.7 0.0
13/05:30pm 20.7 16.2 16.5 77 2.6 SSW 35 52 19 28 1012.1 1011.6 0.0
13/05:00pm 21.0 15.9 16.8 77 2.6 SSW 39 50 21 27 1011.9 1011.4 0.0
13/04:51pm 21.0 14.9 16.6 76 2.7 SSW 44 57 24 31 1011.7 1011.1 0.0
13/04:32pm 21.2 15.3 16.6 75 2.8 SSW 43 61 23 33 1011.3 1010.7 0.0
13/04:30pm 21.5 16.0 16.7 74 2.9 SSW 41 52 22 28 1011.3 1010.7 0.0
13/04:00pm 22.8 16.8 16.8 69 3.7 SSW 44 56 24 30 1011.1 1010.5 0.0
13/03:30pm 23.5 17.5 16.8 66 4.1 SSW 44 57 24 31 1010.8 1010.2 0.0
13/03:00pm 25.0 18.7 17.0 61 5.0 SSW 46 59 25 32 1010.6 1010.0 0.0
13/02:30pm 24.5 17.9 17.2 63 4.6 SSW 48 61 26 33 1010.2 1009.6 0.0
13/02:00pm 25.9 19.4 16.5 56 5.8 SW 46 57 25 31 1010.1 1009.5 0.0
13/01:30pm 26.3 20.4 17.1 57 5.8 SW 44 57 24 31 1009.9 1009.3 0.0
13/01:00pm 26.4 20.5 17.2 57 5.8 SW 44 57 24 31 1009.7 1009.1 0.0
13/12:30pm 28.1 22.7 16.1 48 7.5 WSW 39 50 21 27 1009.3 1008.7 0.0
13/12:00pm 31.8 25.9 13.5 32 11.1 WSW 37 50 20 27 1009.0 1008.5 0.0
13/11:30am 30.9 24.7 13.7 35 10.4 WSW 39 48 21 26 1008.8 1008.3 0.0
13/11:19am 32.6 27.7 13.8 32 11.5 WSW 32 46 17 25 1008.6 1008.1 0.0
13/11:00am 37.9 31.7 7.7 16 17.2 NW 30 43 16 23 1008.4 1007.9 0.0
13/10:45am 37.4 30.7 7.3 16 17.0 NNW 32 50 17 27 1008.0 1007.5 0.0
13/10:41am 37.8 31.0 6.7 15 17.4 NNW 32 46 17 25 1007.8 1007.3 0.0
13/10:30am 39.0 31.4 7.7 15 17.9 N 37 52 20 28 1007.1 1006.6 0.0
13/10:02am 37.5 28.7 7.4 16 17.0 N 43 61 23 33 1006.9 1006.4 0.0
13/10:00am 37.4 29.0 7.3 16 17.0 N 41 54 22 29 1007.0 1006.5 0.0
13/09:54am 37.9 29.2 7.7 16 17.2 N 43 61 23 33 1007.2 1006.7 0.0
13/09:30am 37.1 27.9 8.0 17 16.6 N 46 57 25 31 1007.5 1007.0 0.0
13/09:00am 35.1 26.9 8.0 19 15.3 N 41 54 22 29 1007.7 1007.2 0.0
13/08:30am 33.3 26.2 8.0 21 14.2 NNE 35 50 19 27 1007.9 1007.4 0.0
13/08:12am 31.6 24.3 8.6 24 12.9 N 37 56 20 30 1008.7 1008.2 0.0
13/08:00am 30.5 23.1 8.3 25 12.3 NNE 37 50 20 27 1008.7 1008.2 0.0
13/07:33am 27.4 20.7 8.3 30 10.4 NNE 33 52 18 28 1009.2 1008.6 0.0
13/07:30am 27.4 20.9 8.8 31 10.2 NNE 33 46 18 25 1009.2 1008.6 0.0

Other Formats:

Comma delimited format used in spreadsheet applications
http://www.bom.gov.au/fwo/IDW60801/IDW60801.95638.axf

JavaScript Object Notation format (JSON) in row-major order
http://www.bom.gov.au/fwo/IDW60801/IDW60801.95638.json